首页
METAR-TAF:

METAR-TAF

机场 :

策尔特韦格, 奥地利

纬度: 47-12N, 经度: 014-45E, 海拔: 677米

当前天气观测

该预报发布于21分钟前的10:20 UTC
风速2节,风向多变
温度 5°C
湿度 93%
气压 1013 hPa
能見度: 5000
轻雾

METAR: LOXZ 221020Z VRB02KT 5000 BR FEW001ST SCT300CI 05/04 Q1013 BECMG 9999

时间: 11:41 (10:41 UTC)

预报

该预报发布于2小时和26分钟前的08:15 UTC
预报有效从22日的 09点(UTC)到 22日的 18点(UTC)
风速3节,风向多变
能見度: 0200
层高于200英尺
成为
从 22日的 09点(UTC)到 22日的 11点(UTC)
能见度10公里或以上
少量云层高于5000英尺

TAF: LOXZ 220815Z 2209/2218 VRB03KT 0200 FG VV002 BECMG 2209/2211 9999 FEW050

超过4000个机场的气象观测和天气预报(METAR&TAF报告)。

可查询的气象台以黄色和红色小点在地图上表示。

将鼠标移到小点上方,可查看气象台名称。

然后点击查看天气观测和预报。

如需切换地图:点击带黑十字的绿色按钮放大地图;点击带横线的绿色按钮缩小地图;或者点击绿色箭头查看邻近地区的地图。


METAR-TAF: